sensor_id;sensor_type;location;lat;lon;timestamp;pressure;altitude;pressure_sealevel;temperature;humidity
68807;BME280;55800;54.272;18.558;2023-02-19T00:00:28;100192.25;;;4.44;67.58
68807;BME280;55800;54.272;18.558;2023-02-19T00:03:17;100181.69;;;4.44;67.55
68807;BME280;55800;54.272;18.558;2023-02-19T00:05:46;100182.66;;;4.40;67.50
68807;BME280;55800;54.272;18.558;2023-02-19T00:08:16;100187.13;;;4.38;67.56
68807;BME280;55800;54.272;18.558;2023-02-19T00:10:45;100186.19;;;4.39;67.50
68807;BME280;55800;54.272;18.558;2023-02-19T00:13:16;100185.34;;;4.39;67.69
68807;BME280;55800;54.272;18.558;2023-02-19T00:15:45;100188.00;;;4.39;67.45
68807;BME280;55800;54.272;18.558;2023-02-19T00:18:15;100190.66;;;4.37;67.53
68807;BME280;55800;54.272;18.558;2023-02-19T00:20:44;100195.13;;;4.35;67.55
68807;BME280;55800;54.272;18.558;2023-02-19T00:23:14;100194.38;;;4.30;67.73
68807;BME280;55800;54.272;18.558;2023-02-19T00:25:43;100201.47;;;4.28;67.76
68807;BME280;55800;54.272;18.558;2023-02-19T00:28:12;100203.16;;;4.32;67.80
68807;BME280;55800;54.272;18.558;2023-02-19T00:30:43;100191.75;;;4.29;67.93
68807;BME280;55800;54.272;18.558;2023-02-19T00:33:12;100182.03;;;4.29;67.93
68807;BME280;55800;54.272;18.558;2023-02-19T00:35:42;100194.38;;;4.29;67.85
68807;BME280;55800;54.272;18.558;2023-02-19T00:38:11;100197.28;;;4.20;68.00
68807;BME280;55800;54.272;18.558;2023-02-19T00:40:41;100192.81;;;4.22;67.83
68807;BME280;55800;54.272;18.558;2023-02-19T00:43:10;100206.97;;;4.19;68.05
68807;BME280;55800;54.272;18.558;2023-02-19T00:45:40;100207.91;;;4.17;68.07
68807;BME280;55800;54.272;18.558;2023-02-19T00:48:10;100198.19;;;4.17;68.17
68807;BME280;55800;54.272;18.558;2023-02-19T00:50:40;100204.38;;;4.16;68.16
68807;BME280;55800;54.272;18.558;2023-02-19T00:53:10;100205.34;;;4.12;68.23
68807;BME280;55800;54.272;18.558;2023-02-19T00:55:39;100201.97;;;4.07;68.44
68807;BME280;55800;54.272;18.558;2023-02-19T00:58:08;100202.75;;;4.11;68.37
68807;BME280;55800;54.272;18.558;2023-02-19T01:00:37;100210.72;;;4.09;68.09
68807;BME280;55800;54.272;18.558;2023-02-19T01:03:07;100188.75;;;4.06;68.10
68807;BME280;55800;54.272;18.558;2023-02-19T01:05:37;100196.72;;;4.04;68.02
68807;BME280;55800;54.272;18.558;2023-02-19T01:08:07;100195.06;;;4.00;68.24
68807;BME280;55800;54.272;18.558;2023-02-19T01:10:36;100184.53;;;3.97;68.21
68807;BME280;55800;54.272;18.558;2023-02-19T01:13:06;100189.91;;;3.94;68.38
68807;BME280;55800;54.272;18.558;2023-02-19T01:15:35;100167.91;;;3.92;68.28
68807;BME280;55800;54.272;18.558;2023-02-19T01:18:04;100176.75;;;3.91;68.39
68807;BME280;55800;54.272;18.558;2023-02-19T01:20:34;100177.66;;;3.88;68.27
68807;BME280;55800;54.272;18.558;2023-02-19T01:23:04;100191.00;;;3.84;68.29
68807;BME280;55800;54.272;18.558;2023-02-19T01:25:34;100181.38;;;3.81;68.58
68807;BME280;55800;54.272;18.558;2023-02-19T01:28:06;100191.13;;;3.79;68.50
68807;BME280;55800;54.272;18.558;2023-02-19T01:30:36;100197.34;;;3.77;68.86
68807;BME280;55800;54.272;18.558;2023-02-19T01:33:06;100191.25;;;3.72;68.84
68807;BME280;55800;54.272;18.558;2023-02-19T01:35:38;100200.19;;;3.66;69.23
68807;BME280;55800;54.272;18.558;2023-02-19T01:38:09;100208.09;;;3.68;69.16
68807;BME280;55800;54.272;18.558;2023-02-19T01:40:38;100192.22;;;3.68;69.28
68807;BME280;55800;54.272;18.558;2023-02-19T01:43:13;100193.97;;;3.69;69.41
68807;BME280;55800;54.272;18.558;2023-02-19T01:45:44;100186.06;;;3.67;69.67
68807;BME280;55800;54.272;18.558;2023-02-19T01:48:17;100193.16;;;3.67;69.49
68807;BME280;55800;54.272;18.558;2023-02-19T01:50:51;100186.06;;;3.67;69.28
68807;BME280;55800;54.272;18.558;2023-02-19T01:53:25;100184.28;;;3.68;69.47
68807;BME280;55800;54.272;18.558;2023-02-19T01:55:58;100187.78;;;3.70;69.39
68807;BME280;55800;54.272;18.558;2023-02-19T01:58:32;100185.13;;;3.70;69.61
68807;BME280;55800;54.272;18.558;2023-02-19T02:01:05;100188.56;;;3.73;69.50
68807;BME280;55800;54.272;18.558;2023-02-19T02:03:37;100197.38;;;3.74;69.92
68807;BME280;55800;54.272;18.558;2023-02-19T02:06:10;100183.22;;;3.76;69.47
68807;BME280;55800;54.272;18.558;2023-02-19T02:08:45;100195.53;;;3.79;69.35
68807;BME280;55800;54.272;18.558;2023-02-19T02:11:32;100194.66;;;3.78;69.64
68807;BME280;55800;54.272;18.558;2023-02-19T02:14:03;100187.59;;;3.79;69.68
68807;BME280;55800;54.272;18.558;2023-02-19T02:16:33;100178.66;;;3.84;69.50
68807;BME280;55800;54.272;18.558;2023-02-19T02:19:27;100180.41;;;3.85;69.54
68807;BME280;55800;54.272;18.558;2023-02-19T02:22:04;100174.19;;;3.88;69.39
68807;BME280;55800;54.272;18.558;2023-02-19T02:24:59;100179.53;;;3.85;69.35
68807;BME280;55800;54.272;18.558;2023-02-19T02:27:50;100197.97;;;3.88;69.27
68807;BME280;55800;54.272;18.558;2023-02-19T02:30:40;100197.84;;;3.94;69.21
68807;BME280;55800;54.272;18.558;2023-02-19T02:33:17;100191.63;;;3.95;69.10
68807;BME280;55800;54.272;18.558;2023-02-19T02:35:51;100190.75;;;3.94;69.10
68807;BME280;55800;54.272;18.558;2023-02-19T02:38:25;100179.25;;;3.97;69.09
68807;BME280;55800;54.272;18.558;2023-02-19T02:40:56;100179.22;;;3.99;68.95
68807;BME280;55800;54.272;18.558;2023-02-19T02:43:27;100178.25;;;4.03;68.82
68807;BME280;55800;54.272;18.558;2023-02-19T02:45:58;100173.06;;;3.98;68.96
68807;BME280;55800;54.272;18.558;2023-02-19T02:48:34;100171.31;;;3.99;68.99
68807;BME280;55800;54.272;18.558;2023-02-19T02:51:09;100165.03;;;4.01;68.81
68807;BME280;55800;54.272;18.558;2023-02-19T02:54:07;100172.97;;;4.03;68.83
68807;BME280;55800;54.272;18.558;2023-02-19T02:56:57;100173.81;;;4.05;68.53
68807;BME280;55800;54.272;18.558;2023-02-19T02:59:32;100164.94;;;4.07;68.46
68807;BME280;55800;54.272;18.558;2023-02-19T03:02:06;100174.66;;;4.05;68.54
68807;BME280;55800;54.272;18.558;2023-02-19T03:04:44;100171.94;;;4.08;68.49
68807;BME280;55800;54.272;18.558;2023-02-19T03:07:41;100179.00;;;4.08;68.31
68807;BME280;55800;54.272;18.558;2023-02-19T03:10:15;100178.16;;;4.06;68.45
68807;BME280;55800;54.272;18.558;2023-02-19T03:12:46;100184.34;;;4.06;68.45
68807;BME280;55800;54.272;18.558;2023-02-19T03:15:38;100191.34;;;4.09;68.22
68807;BME280;55800;54.272;18.558;2023-02-19T03:18:30;100187.88;;;4.05;68.38
68807;BME280;55800;54.272;18.558;2023-02-19T03:21:21;100189.56;;;4.09;68.26
68807;BME280;55800;54.272;18.558;2023-02-19T03:23:53;100191.28;;;4.10;68.21
68807;BME280;55800;54.272;18.558;2023-02-19T03:26:43;100185.22;;;4.05;68.10
68807;BME280;55800;54.272;18.558;2023-02-19T03:29:25;100189.66;;;4.05;68.46
68807;BME280;55800;54.272;18.558;2023-02-19T03:32:05;100190.38;;;4.13;68.15
68807;BME280;55800;54.272;18.558;2023-02-19T03:34:41;100191.28;;;4.10;68.27
68807;BME280;55800;54.272;18.558;2023-02-19T03:37:15;100197.41;;;4.12;67.98
68807;BME280;55800;54.272;18.558;2023-02-19T03:39:48;100196.53;;;4.13;67.79
68807;BME280;55800;54.272;18.558;2023-02-19T03:42:23;100192.97;;;4.14;67.89
68807;BME280;55800;54.272;18.558;2023-02-19T03:45:10;100191.25;;;4.13;67.65
68807;BME280;55800;54.272;18.558;2023-02-19T03:47:46;100187.66;;;4.14;67.63
68807;BME280;55800;54.272;18.558;2023-02-19T03:50:25;100177.19;;;4.11;67.60
68807;BME280;55800;54.272;18.558;2023-02-19T03:53:02;100188.59;;;4.12;67.42
68807;BME280;55800;54.272;18.558;2023-02-19T03:55:42;100187.91;;;4.04;67.55
68807;BME280;55800;54.272;18.558;2023-02-19T03:58:17;100184.38;;;4.03;67.43
68807;BME280;55800;54.272;18.558;2023-02-19T04:00:54;100188.00;;;3.99;67.56
68807;BME280;55800;54.272;18.558;2023-02-19T04:03:34;100183.69;;;3.95;67.78
68807;BME280;55800;54.272;18.558;2023-02-19T04:06:11;100185.50;;;3.93;67.72
68807;BME280;55800;54.272;18.558;2023-02-19T04:08:46;100186.44;;;3.92;67.65
68807;BME280;55800;54.272;18.558;2023-02-19T04:11:18;100176.69;;;3.92;67.74
68807;BME280;55800;54.272;18.558;2023-02-19T04:13:57;100182.94;;;3.90;67.68
68807;BME280;55800;54.272;18.558;2023-02-19T04:16:29;100171.53;;;3.88;67.68
68807;BME280;55800;54.272;18.558;2023-02-19T04:19:05;100166.34;;;3.83;67.83
68807;BME280;55800;54.272;18.558;2023-02-19T04:21:39;100173.31;;;3.86;67.88
68807;BME280;55800;54.272;18.558;2023-02-19T04:24:12;100174.22;;;3.85;67.88
68807;BME280;55800;54.272;18.558;2023-02-19T04:26:43;100176.09;;;3.80;67.94
68807;BME280;55800;54.272;18.558;2023-02-19T04:29:13;100169.97;;;3.79;68.05
68807;BME280;55800;54.272;18.558;2023-02-19T04:31:42;100169.97;;;3.79;68.13
68807;BME280;55800;54.272;18.558;2023-02-19T04:34:11;100161.19;;;3.77;68.02
68807;BME280;55800;54.272;18.558;2023-02-19T04:36:42;100167.41;;;3.75;68.35
68807;BME280;55800;54.272;18.558;2023-02-19T04:39:12;100169.28;;;3.70;68.55
68807;BME280;55800;54.272;18.558;2023-02-19T04:41:42;100165.78;;;3.68;68.57
68807;BME280;55800;54.272;18.558;2023-02-19T04:44:11;100156.97;;;3.69;68.65
68807;BME280;55800;54.272;18.558;2023-02-19T04:46:41;100164.06;;;3.65;68.77
68807;BME280;55800;54.272;18.558;2023-02-19T04:49:10;100153.50;;;3.65;68.63
68807;BME280;55800;54.272;18.558;2023-02-19T04:51:41;100153.53;;;3.64;68.83
68807;BME280;55800;54.272;18.558;2023-02-19T04:54:11;100168.47;;;3.66;68.62
68807;BME280;55800;54.272;18.558;2023-02-19T04:56:40;100170.28;;;3.63;68.90
68807;BME280;55800;54.272;18.558;2023-02-19T04:59:09;100166.84;;;3.59;69.02
68807;BME280;55800;54.272;18.558;2023-02-19T05:01:39;100166.06;;;3.56;68.97
68807;BME280;55800;54.272;18.558;2023-02-19T05:04:08;100157.22;;;3.57;69.16
68807;BME280;55800;54.272;18.558;2023-02-19T05:06:38;100159.84;;;3.58;68.91
68807;BME280;55800;54.272;18.558;2023-02-19T05:09:08;100168.63;;;3.59;68.98
68807;BME280;55800;54.272;18.558;2023-02-19T05:11:38;100174.00;;;3.54;68.88
68807;BME280;55800;54.272;18.558;2023-02-19T05:14:07;100178.44;;;3.52;69.10
68807;BME280;55800;54.272;18.558;2023-02-19T05:16:36;100171.47;;;3.50;68.95
68807;BME280;55800;54.272;18.558;2023-02-19T05:19:05;100175.84;;;3.51;69.15
68807;BME280;55800;54.272;18.558;2023-02-19T05:21:35;100173.19;;;3.51;68.89
68807;BME280;55800;54.272;18.558;2023-02-19T05:24:05;100181.97;;;3.53;69.04
68807;BME280;55800;54.272;18.558;2023-02-19T05:26:35;100189.00;;;3.54;69.40
68807;BME280;55800;54.272;18.558;2023-02-19T05:29:04;100193.50;;;3.49;69.16
68807;BME280;55800;54.272;18.558;2023-02-19T05:31:34;100194.50;;;3.42;69.34
68807;BME280;55800;54.272;18.558;2023-02-19T05:34:03;100194.63;;;3.37;69.65
68807;BME280;55800;54.272;18.558;2023-02-19T05:36:33;100192.72;;;3.44;69.69
68807;BME280;55800;54.272;18.558;2023-02-19T05:39:03;100184.88;;;3.41;69.95
68807;BME280;55800;54.272;18.558;2023-02-19T05:41:35;100196.19;;;3.46;69.45
68807;BME280;55800;54.272;18.558;2023-02-19T05:44:05;100206.00;;;3.41;69.68
68807;BME280;55800;54.272;18.558;2023-02-19T05:46:35;100199.78;;;3.43;69.93
68807;BME280;55800;54.272;18.558;2023-02-19T05:49:04;100190.88;;;3.49;69.61
68807;BME280;55800;54.272;18.558;2023-02-19T05:51:34;100199.75;;;3.45;69.86
68807;BME280;55800;54.272;18.558;2023-02-19T05:54:03;100199.03;;;3.37;69.83
68807;BME280;55800;54.272;18.558;2023-02-19T05:56:36;100199.09;;;3.34;69.87
68807;BME280;55800;54.272;18.558;2023-02-19T05:59:12;100203.41;;;3.38;69.82
68807;BME280;55800;54.272;18.558;2023-02-19T06:01:43;100194.63;;;3.36;70.40
68807;BME280;55800;54.272;18.558;2023-02-19T06:04:13;100198.06;;;3.41;70.05
68807;BME280;55800;54.272;18.558;2023-02-19T06:06:44;100196.41;;;3.37;69.83
68807;BME280;55800;54.272;18.558;2023-02-19T06:09:14;100206.09;;;3.36;70.23
68807;BME280;55800;54.272;18.558;2023-02-19T06:11:45;100204.25;;;3.41;69.77
68807;BME280;55800;54.272;18.558;2023-02-19T06:14:14;100206.81;;;3.44;69.91
68807;BME280;55800;54.272;18.558;2023-02-19T06:16:44;100208.56;;;3.44;69.82
68807;BME280;55800;54.272;18.558;2023-02-19T06:19:13;100212.88;;;3.49;69.75
68807;BME280;55800;54.272;18.558;2023-02-19T06:21:42;100214.66;;;3.49;69.69
68807;BME280;55800;54.272;18.558;2023-02-19T06:24:11;100218.28;;;3.43;70.14
68807;BME280;55800;54.272;18.558;2023-02-19T06:26:40;100217.38;;;3.44;70.07
68807;BME280;55800;54.272;18.558;2023-02-19T06:29:11;100219.97;;;3.46;70.10
68807;BME280;55800;54.272;18.558;2023-02-19T06:31:41;100224.34;;;3.50;70.01
68807;BME280;55800;54.272;18.558;2023-02-19T06:34:11;100220.78;;;3.51;69.75
68807;BME280;55800;54.272;18.558;2023-02-19T06:36:41;100233.09;;;3.52;70.00
68807;BME280;55800;54.272;18.558;2023-02-19T06:39:11;100231.28;;;3.54;70.08
68807;BME280;55800;54.272;18.558;2023-02-19T06:41:40;100236.53;;;3.55;70.04
68807;BME280;55800;54.272;18.558;2023-02-19T06:44:11;100240.06;;;3.56;70.05
68807;BME280;55800;54.272;18.558;2023-02-19T06:46:40;100238.19;;;3.61;69.83
68807;BME280;55800;54.272;18.558;2023-02-19T06:49:10;100250.63;;;3.56;70.32
68807;BME280;55800;54.272;18.558;2023-02-19T06:51:39;100239.94;;;3.62;69.80
68807;BME280;55800;54.272;18.558;2023-02-19T06:54:09;100243.41;;;3.64;69.98
68807;BME280;55800;54.272;18.558;2023-02-19T06:56:39;100256.53;;;3.68;69.93
68807;BME280;55800;54.272;18.558;2023-02-19T06:59:12;100260.81;;;3.74;69.78
68807;BME280;55800;54.272;18.558;2023-02-19T07:01:44;100266.19;;;3.71;70.03
68807;BME280;55800;54.272;18.558;2023-02-19T07:04:14;100267.88;;;3.75;70.13
68807;BME280;55800;54.272;18.558;2023-02-19T07:06:43;100269.56;;;3.79;70.09
68807;BME280;55800;54.272;18.558;2023-02-19T07:09:13;100273.06;;;3.79;69.95
68807;BME280;55800;54.272;18.558;2023-02-19T07:11:43;100272.06;;;3.85;69.96
68807;BME280;55800;54.272;18.558;2023-02-19T07:14:16;100279.94;;;3.88;70.03
68807;BME280;55800;54.272;18.558;2023-02-19T07:16:45;100276.44;;;3.86;69.99
68807;BME280;55800;54.272;18.558;2023-02-19T07:19:15;100285.19;;;3.89;70.27
68807;BME280;55800;54.272;18.558;2023-02-19T07:21:45;100287.75;;;3.94;70.18
68807;BME280;55800;54.272;18.558;2023-02-19T07:24:14;100295.63;;;3.97;70.14
68807;BME280;55800;54.272;18.558;2023-02-19T07:26:43;100285.03;;;3.97;70.52
68807;BME280;55800;54.272;18.558;2023-02-19T07:29:14;100285.81;;;4.02;70.28
68807;BME280;55800;54.272;18.558;2023-02-19T07:31:44;100295.56;;;4.00;70.29
68807;BME280;55800;54.272;18.558;2023-02-19T07:34:13;100300.84;;;4.00;70.21
68807;BME280;55800;54.272;18.558;2023-02-19T07:36:43;100306.88;;;4.07;70.09
68807;BME280;55800;54.272;18.558;2023-02-19T07:39:12;100300.66;;;4.09;70.24
68807;BME280;55800;54.272;18.558;2023-02-19T07:41:42;100309.44;;;4.11;69.81
68807;BME280;55800;54.272;18.558;2023-02-19T07:44:26;100313.91;;;4.08;70.08
68807;BME280;55800;54.272;18.558;2023-02-19T07:46:56;100309.50;;;4.08;69.92
68807;BME280;55800;54.272;18.558;2023-02-19T07:49:26;100313.91;;;4.09;69.80
68807;BME280;55800;54.272;18.558;2023-02-19T07:51:56;100318.28;;;4.10;69.65
68807;BME280;55800;54.272;18.558;2023-02-19T07:54:25;100323.56;;;4.10;69.75
68807;BME280;55800;54.272;18.558;2023-02-19T07:56:54;100319.97;;;4.13;69.73
68807;BME280;55800;54.272;18.558;2023-02-19T07:59:25;100316.59;;;4.06;70.06
68807;BME280;55800;54.272;18.558;2023-02-19T08:01:56;100324.44;;;4.11;69.76
68807;BME280;55800;54.272;18.558;2023-02-19T08:04:43;100327.97;;;4.10;69.65
68807;BME280;55800;54.272;18.558;2023-02-19T08:07:13;100332.34;;;4.12;69.48
68807;BME280;55800;54.272;18.558;2023-02-19T08:09:42;100320.78;;;4.16;69.42
68807;BME280;55800;54.272;18.558;2023-02-19T08:12:11;100338.41;;;4.17;69.34
68807;BME280;55800;54.272;18.558;2023-02-19T08:14:59;100337.56;;;4.15;69.48
68807;BME280;55800;54.272;18.558;2023-02-19T08:17:30;100346.34;;;4.16;69.28
68807;BME280;55800;54.272;18.558;2023-02-19T08:19:59;100341.94;;;4.18;69.21
68807;BME280;55800;54.272;18.558;2023-02-19T08:22:30;100342.75;;;4.21;69.08
68807;BME280;55800;54.272;18.558;2023-02-19T08:25:00;100351.47;;;4.26;68.97
68807;BME280;55800;54.272;18.558;2023-02-19T08:27:29;100361.13;;;4.27;68.83
68807;BME280;55800;54.272;18.558;2023-02-19T08:29:59;100360.25;;;4.27;68.89
68807;BME280;55800;54.272;18.558;2023-02-19T08:32:31;100354.03;;;4.29;68.67
68807;BME280;55800;54.272;18.558;2023-02-19T08:35:00;100361.97;;;4.29;68.56
68807;BME280;55800;54.272;18.558;2023-02-19T08:37:35;100363.72;;;4.30;68.79
68807;BME280;55800;54.272;18.558;2023-02-19T08:40:04;100374.22;;;4.33;68.67
68807;BME280;55800;54.272;18.558;2023-02-19T08:42:37;100368.88;;;4.36;68.36
68807;BME280;55800;54.272;18.558;2023-02-19T08:45:09;100378.53;;;4.39;68.48
68807;BME280;55800;54.272;18.558;2023-02-19T08:47:41;100384.75;;;4.36;68.17
68807;BME280;55800;54.272;18.558;2023-02-19T08:50:10;100380.31;;;4.38;68.04
68807;BME280;55800;54.272;18.558;2023-02-19T08:52:42;100387.19;;;4.45;67.96
68807;BME280;55800;54.272;18.558;2023-02-19T08:55:12;100388.16;;;4.43;68.09
68807;BME280;55800;54.272;18.558;2023-02-19T08:57:42;100384.63;;;4.42;68.00
68807;BME280;55800;54.272;18.558;2023-02-19T09:00:13;100386.34;;;4.43;67.92
68807;BME280;55800;54.272;18.558;2023-02-19T09:02:47;100391.66;;;4.43;67.82
68807;BME280;55800;54.272;18.558;2023-02-19T09:05:16;100403.09;;;4.45;67.85
68807;BME280;55800;54.272;18.558;2023-02-19T09:07:46;100405.53;;;4.54;67.57
68807;BME280;55800;54.272;18.558;2023-02-19T09:10:15;100415.22;;;4.57;67.17
68807;BME280;55800;54.272;18.558;2023-02-19T09:12:46;100411.69;;;4.56;66.97
68807;BME280;55800;54.272;18.558;2023-02-19T09:15:16;100420.50;;;4.57;67.51
68807;BME280;55800;54.272;18.558;2023-02-19T09:17:50;100421.31;;;4.60;66.94
68807;BME280;55800;54.272;18.558;2023-02-19T09:20:20;100415.03;;;4.66;66.30
68807;BME280;55800;54.272;18.558;2023-02-19T09:22:49;100405.31;;;4.65;66.16
68807;BME280;55800;54.272;18.558;2023-02-19T09:25:24;100403.38;;;4.73;65.94
68807;BME280;55800;54.272;18.558;2023-02-19T09:27:54;100408.66;;;4.74;65.62
68807;BME280;55800;54.272;18.558;2023-02-19T09:30:26;100408.56;;;4.78;65.64
68807;BME280;55800;54.272;18.558;2023-02-19T09:32:56;100406.81;;;4.78;65.61
68807;BME280;55800;54.272;18.558;2023-02-19T09:35:25;100411.13;;;4.82;65.58
68807;BME280;55800;54.272;18.558;2023-02-19T09:37:58;100412.81;;;4.86;65.95
68807;BME280;55800;54.272;18.558;2023-02-19T09:40:30;100411.72;;;4.95;65.66
68807;BME280;55800;54.272;18.558;2023-02-19T09:43:00;100410.66;;;5.03;65.93
68807;BME280;55800;54.272;18.558;2023-02-19T09:45:32;100414.91;;;5.10;65.88
68807;BME280;55800;54.272;18.558;2023-02-19T09:48:03;100422.75;;;5.15;65.97
68807;BME280;55800;54.272;18.558;2023-02-19T09:50:36;100436.00;;;5.15;65.84
68807;BME280;55800;54.272;18.558;2023-02-19T09:53:13;100433.31;;;5.16;65.17
68807;BME280;55800;54.272;18.558;2023-02-19T09:55:44;100432.34;;;5.20;65.08
68807;BME280;55800;54.272;18.558;2023-02-19T09:58:32;100432.09;;;5.31;65.02
68807;BME280;55800;54.272;18.558;2023-02-19T10:01:05;100433.69;;;5.38;65.10
68807;BME280;55800;54.272;18.558;2023-02-19T10:03:42;100429.97;;;5.45;65.35
68807;BME280;55800;54.272;18.558;2023-02-19T10:06:17;100432.41;;;5.54;65.12
68807;BME280;55800;54.272;18.558;2023-02-19T10:08:48;100445.59;;;5.57;65.21
68807;BME280;55800;54.272;18.558;2023-02-19T10:11:18;100443.78;;;5.59;63.66
68807;BME280;55800;54.272;18.558;2023-02-19T10:13:49;100453.44;;;5.62;64.70
68807;BME280;55800;54.272;18.558;2023-02-19T10:16:25;100452.34;;;5.70;63.46
68807;BME280;55800;54.272;18.558;2023-02-19T10:18:56;100449.53;;;5.76;62.85
68807;BME280;55800;54.272;18.558;2023-02-19T10:21:26;100452.09;;;5.79;62.13
68807;BME280;55800;54.272;18.558;2023-02-19T10:23:58;100458.28;;;5.80;62.25
68807;BME280;55800;54.272;18.558;2023-02-19T10:26:28;100453.72;;;5.86;61.63
68807;BME280;55800;54.272;18.558;2023-02-19T10:29:02;100443.00;;;5.91;61.27
68807;BME280;55800;54.272;18.558;2023-02-19T10:31:33;100446.56;;;5.90;61.13
68807;BME280;55800;54.272;18.558;2023-02-19T10:34:03;100448.09;;;5.98;61.74
68807;BME280;55800;54.272;18.558;2023-02-19T10:36:36;100447.69;;;6.13;61.37
68807;BME280;55800;54.272;18.558;2023-02-19T10:39:18;100452.00;;;6.19;60.46
68807;BME280;55800;54.272;18.558;2023-02-19T10:41:57;100456.25;;;6.24;60.90
68807;BME280;55800;54.272;18.558;2023-02-19T10:44:29;100456.91;;;6.32;60.07
68807;BME280;55800;54.272;18.558;2023-02-19T10:47:01;100468.19;;;6.41;59.61
68807;BME280;55800;54.272;18.558;2023-02-19T10:49:36;100469.00;;;6.44;59.39
68807;BME280;55800;54.272;18.558;2023-02-19T10:52:13;100473.25;;;6.50;58.77
68807;BME280;55800;54.272;18.558;2023-02-19T10:54:45;100471.38;;;6.55;58.13
68807;BME280;55800;54.272;18.558;2023-02-19T10:57:29;100480.22;;;6.54;57.30
68807;BME280;55800;54.272;18.558;2023-02-19T11:00:16;100471.38;;;6.55;56.88
68807;BME280;55800;54.272;18.558;2023-02-19T11:03:12;100473.91;;;6.59;58.03
68807;BME280;55800;54.272;18.558;2023-02-19T11:05:51;100484.47;;;6.61;56.90
68807;BME280;55800;54.272;18.558;2023-02-19T11:08:23;100486.38;;;6.56;56.35
68807;BME280;55800;54.272;18.558;2023-02-19T11:10:53;100493.50;;;6.55;56.52
68807;BME280;55800;54.272;18.558;2023-02-19T11:13:27;100495.16;;;6.59;56.22
68807;BME280;55800;54.272;18.558;2023-02-19T11:16:00;100491.72;;;6.54;55.92
68807;BME280;55800;54.272;18.558;2023-02-19T11:18:32;100496.09;;;6.57;58.00
68807;BME280;55800;54.272;18.558;2023-02-19T11:21:05;100491.44;;;6.65;58.96
68807;BME280;55800;54.272;18.558;2023-02-19T11:23:42;100488.53;;;6.72;57.27
68807;BME280;55800;54.272;18.558;2023-02-19T11:26:17;100499.22;;;6.71;56.63
68807;BME280;55800;54.272;18.558;2023-02-19T11:28:55;100506.28;;;6.72;56.89
68807;BME280;55800;54.272;18.558;2023-02-19T11:31:28;100508.06;;;6.71;56.89
68807;BME280;55800;54.272;18.558;2023-02-19T11:34:01;100504.53;;;6.71;56.27
68807;BME280;55800;54.272;18.558;2023-02-19T11:36:33;100510.59;;;6.76;57.18
68807;BME280;55800;54.272;18.558;2023-02-19T11:39:19;100514.09;;;6.78;56.35
68807;BME280;55800;54.272;18.558;2023-02-19T11:42:03;100512.31;;;6.78;56.00
68807;BME280;55800;54.272;18.558;2023-02-19T11:44:44;100517.31;;;6.89;56.81
68807;BME280;55800;54.272;18.558;2023-02-19T11:47:44;100508.22;;;6.97;56.40
68807;BME280;55800;54.272;18.558;2023-02-19T11:50:26;100513.28;;;7.05;57.59
68807;BME280;55800;54.272;18.558;2023-02-19T11:53:09;100525.53;;;7.10;55.39
68807;BME280;55800;54.272;18.558;2023-02-19T11:55:51;100504.13;;;7.15;55.48
68807;BME280;55800;54.272;18.558;2023-02-19T11:58:49;100510.06;;;7.23;56.17
68807;BME280;55800;54.272;18.558;2023-02-19T12:01:26;100500.25;;;7.27;53.76
68807;BME280;55800;54.272;18.558;2023-02-19T12:07:03;100525.50;;;7.12;51.53
68807;BME280;55800;54.272;18.558;2023-02-19T12:09:56;100532.78;;;7.05;52.43
68807;BME280;55800;54.272;18.558;2023-02-19T12:12:46;100533.88;;;6.98;52.87
68807;BME280;55800;54.272;18.558;2023-02-19T12:15:29;100542.19;;;6.86;53.09
68807;BME280;55800;54.272;18.558;2023-02-19T12:18:30;100544.03;;;6.84;53.08
68807;BME280;55800;54.272;18.558;2023-02-19T12:21:13;100545.91;;;6.79;53.42
68807;BME280;55800;54.272;18.558;2023-02-19T12:26:58;100547.84;;;6.74;52.88
68807;BME280;55800;54.272;18.558;2023-02-19T12:29:42;100545.91;;;6.79;53.31
68807;BME280;55800;54.272;18.558;2023-02-19T12:32:37;100562.81;;;6.77;51.42
68807;BME280;55800;54.272;18.558;2023-02-19T12:38:26;100565.41;;;6.80;52.48
68807;BME280;55800;54.272;18.558;2023-02-19T12:41:06;100570.78;;;6.77;53.80
68807;BME280;55800;54.272;18.558;2023-02-19T12:43:46;100576.91;;;6.80;52.94
68807;BME280;55800;54.272;18.558;2023-02-19T12:46:24;100584.00;;;6.80;52.93
68807;BME280;55800;54.272;18.558;2023-02-19T12:49:01;100582.09;;;6.85;52.99
68807;BME280;55800;54.272;18.558;2023-02-19T12:51:38;100590.84;;;6.88;52.95
68807;BME280;55800;54.272;18.558;2023-02-19T12:54:15;100581.09;;;6.89;52.16
68807;BME280;55800;54.272;18.558;2023-02-19T12:56:53;100591.81;;;6.86;52.37
68807;BME280;55800;54.272;18.558;2023-02-19T12:59:29;100596.13;;;6.90;52.26
68807;BME280;55800;54.272;18.558;2023-02-19T13:02:08;100585.66;;;6.84;52.47
68807;BME280;55800;54.272;18.558;2023-02-19T13:04:44;100591.75;;;6.87;52.40
68807;BME280;55800;54.272;18.558;2023-02-19T13:07:20;100596.06;;;6.91;52.08
68807;BME280;55800;54.272;18.558;2023-02-19T13:09:56;100592.44;;;6.95;52.96
68807;BME280;55800;54.272;18.558;2023-02-19T13:12:30;100594.09;;;6.99;52.51
68807;BME280;55800;54.272;18.558;2023-02-19T13:15:08;100594.22;;;6.95;51.10
68807;BME280;55800;54.272;18.558;2023-02-19T13:17:45;100603.44;;;6.82;49.67
68807;BME280;55800;54.272;18.558;2023-02-19T13:20:23;100600.09;;;6.74;49.99
68807;BME280;55800;54.272;18.558;2023-02-19T13:23:00;100610.06;;;6.66;48.55
68807;BME280;55800;54.272;18.558;2023-02-19T13:26:08;100611.28;;;6.53;48.59
68807;BME280;55800;54.272;18.558;2023-02-19T13:28:56;100607.81;;;6.49;50.28
68807;BME280;55800;54.272;18.558;2023-02-19T13:31:43;100617.59;;;6.49;48.95
68807;BME280;55800;54.272;18.558;2023-02-19T13:34:24;100625.69;;;6.43;49.47